createdAt,value
2022-09-25T00:02:04.420Z,8.13
2022-09-25T00:04:32.961Z,9.10
2022-09-25T00:07:01.225Z,8.13
2022-09-25T00:09:29.453Z,7.87
2022-09-25T00:11:57.698Z,7.87
2022-09-25T00:14:26.019Z,7.47
2022-09-25T00:16:55.704Z,7.97
2022-09-25T00:19:41.221Z,7.60
2022-09-25T00:22:09.489Z,7.53
2022-09-25T00:25:03.450Z,8.10
2022-09-25T00:27:32.647Z,8.33
2022-09-25T00:30:01.462Z,7.50
2022-09-25T00:32:31.142Z,7.70
2022-09-25T00:34:59.377Z,7.53
2022-09-25T00:37:28.650Z,7.67
2022-09-25T00:39:57.465Z,7.70
2022-09-25T00:42:25.952Z,7.77
2022-09-25T00:45:00.924Z,7.37
2022-09-25T00:47:45.003Z,7.43
2022-09-25T00:50:40.005Z,7.40
2022-09-25T00:53:12.620Z,7.07
2022-09-25T00:55:42.831Z,7.13
2022-09-25T00:58:20.791Z,7.60
2022-09-25T01:00:49.237Z,6.83
2022-09-25T01:03:26.084Z,7.33
2022-09-25T01:06:19.894Z,6.90
2022-09-25T01:08:48.386Z,7.03
2022-09-25T01:11:17.954Z,6.97
2022-09-25T01:13:46.408Z,7.20
2022-09-25T01:16:21.598Z,6.70
2022-09-25T01:19:04.801Z,6.10
2022-09-25T01:21:40.541Z,7.27
2022-09-25T01:24:43.984Z,7.57
2022-09-25T01:27:45.786Z,7.40
2022-09-25T01:30:18.256Z,6.67
2022-09-25T01:32:58.033Z,7.40
2022-09-25T01:35:37.604Z,6.33
2022-09-25T01:38:15.282Z,7.23
2022-09-25T01:40:51.981Z,6.93
2022-09-25T01:43:24.943Z,6.63
2022-09-25T01:45:57.486Z,7.73
2022-09-25T01:48:48.682Z,7.10
2022-09-25T01:51:19.938Z,7.10
2022-09-25T01:53:52.750Z,7.07
2022-09-25T01:56:32.915Z,6.90
2022-09-25T01:59:07.214Z,7.43
2022-09-25T02:01:40.854Z,7.33
2022-09-25T02:04:13.537Z,6.87
2022-09-25T02:06:46.287Z,6.70
2022-09-25T02:09:19.081Z,6.90
2022-09-25T02:11:54.805Z,7.07
2022-09-25T02:14:55.210Z,6.93
2022-09-25T02:17:49.981Z,6.63
2022-09-25T02:20:33.375Z,7.20
2022-09-25T02:23:09.702Z,7.03
2022-09-25T02:25:41.567Z,6.43
2022-09-25T02:28:10.047Z,7.30
2022-09-25T02:30:39.105Z,7.00
2022-09-25T02:33:12.286Z,7.37
2022-09-25T02:35:41.229Z,7.33
2022-09-25T02:38:10.341Z,6.87
2022-09-25T02:40:45.918Z,7.43
2022-09-25T02:43:42.480Z,6.77
2022-09-25T02:46:20.639Z,7.30
2022-09-25T02:48:55.200Z,7.40
2022-09-25T02:51:30.772Z,6.80
2022-09-25T02:54:09.775Z,6.87
2022-09-25T02:56:48.474Z,7.20
2022-09-25T02:59:23.273Z,7.00
2022-09-25T03:01:52.671Z,6.97
2022-09-25T03:04:24.738Z,6.80
2022-09-25T03:06:53.638Z,6.57
2022-09-25T03:09:23.782Z,6.43
2022-09-25T03:11:52.889Z,7.27
2022-09-25T03:14:21.151Z,6.90
2022-09-25T03:16:52.539Z,6.50
2022-09-25T03:19:22.266Z,7.03
2022-09-25T03:21:51.165Z,8.03
2022-09-25T03:24:19.502Z,7.70
2022-09-25T03:26:47.742Z,7.33
2022-09-25T03:29:17.418Z,7.10
2022-09-25T03:31:45.958Z,7.67
2022-09-25T03:34:15.592Z,6.60
2022-09-25T03:37:05.642Z,6.63
2022-09-25T03:39:33.833Z,6.90
2022-09-25T03:42:02.087Z,7.77
2022-09-25T03:44:30.408Z,7.30
2022-09-25T03:46:58.809Z,7.40
2022-09-25T03:49:27.052Z,7.40
2022-09-25T03:51:56.697Z,7.23
2022-09-25T03:54:24.965Z,7.17
2022-09-25T03:56:53.205Z,7.13
2022-09-25T03:59:21.479Z,6.93
2022-09-25T04:01:49.739Z,6.90
2022-09-25T04:04:18.007Z,7.33
2022-09-25T04:06:46.268Z,7.63
2022-09-25T04:09:15.926Z,7.47
2022-09-25T04:11:45.146Z,8.97
2022-09-25T04:14:16.350Z,7.00
2022-09-25T04:16:45.442Z,7.23
2022-09-25T04:19:15.954Z,7.30
2022-09-25T04:21:44.212Z,11.40
2022-09-25T04:24:30.065Z,8.53
2022-09-25T04:27:00.593Z,10.57
2022-09-25T04:29:54.000Z,8.00
2022-09-25T04:32:39.477Z,9.40
2022-09-25T04:35:08.125Z,9.10
2022-09-25T04:37:36.420Z,8.23
2022-09-25T04:40:04.935Z,7.43
2022-09-25T04:42:34.563Z,7.10
2022-09-25T04:45:03.310Z,7.27
2022-09-25T04:47:31.517Z,7.83
2022-09-25T04:49:59.784Z,7.47
2022-09-25T04:52:28.278Z,7.57
2022-09-25T04:54:56.503Z,7.60
2022-09-25T04:57:53.350Z,7.97
2022-09-25T05:00:18.753Z,7.77
2022-09-25T05:02:47.160Z,7.30
2022-09-25T05:05:31.540Z,7.87
2022-09-25T05:08:01.607Z,6.90
2022-09-25T05:10:31.470Z,6.17
2022-09-25T05:13:00.808Z,8.20
2022-09-25T05:15:32.271Z,8.73
2022-09-25T05:18:07.126Z,14.07
2022-09-25T05:20:37.010Z,10.07
2022-09-25T05:23:05.255Z,10.07
2022-09-25T05:25:33.713Z,12.33
2022-09-25T05:28:02.930Z,9.80
2022-09-25T05:30:34.476Z,8.97
2022-09-25T05:33:02.965Z,10.33
2022-09-25T05:35:33.056Z,10.33
2022-09-25T05:38:26.692Z,10.17
2022-09-25T05:40:55.823Z,9.40
2022-09-25T05:43:24.913Z,9.10
2022-09-25T05:45:57.720Z,8.50
2022-09-25T05:48:26.097Z,7.80
2022-09-25T05:50:54.698Z,7.70
2022-09-25T05:53:23.421Z,7.97
2022-09-25T05:55:52.249Z,7.93
2022-09-25T05:58:21.026Z,7.60
2022-09-25T06:00:50.116Z,7.87
2022-09-25T06:03:20.535Z,7.80
2022-09-25T06:05:49.413Z,8.33
2022-09-25T06:08:17.656Z,7.40
2022-09-25T06:10:45.916Z,7.73
2022-09-25T06:13:38.748Z,8.10
2022-09-25T06:16:15.134Z,8.17
2022-09-25T06:18:44.947Z,7.63
2022-09-25T06:21:13.265Z,7.97
2022-09-25T06:23:44.905Z,8.00
2022-09-25T06:26:13.813Z,8.97
2022-09-25T06:28:42.025Z,8.30
2022-09-25T06:31:10.293Z,8.70
2022-09-25T06:33:38.609Z,8.50
2022-09-25T06:36:08.417Z,8.63
2022-09-25T06:38:36.785Z,8.10
2022-09-25T06:41:05.210Z,8.07
2022-09-25T06:43:33.467Z,8.00
2022-09-25T06:46:03.705Z,8.10
2022-09-25T06:48:32.369Z,8.07
2022-09-25T06:51:02.013Z,8.20
2022-09-25T06:53:31.769Z,7.23
2022-09-25T06:56:00.950Z,8.03
2022-09-25T06:58:30.679Z,7.77
2022-09-25T07:00:59.675Z,7.40
2022-09-25T07:03:45.448Z,7.10
2022-09-25T07:06:15.751Z,8.27
2022-09-25T07:08:48.213Z,7.83
2022-09-25T07:11:18.877Z,7.53
2022-09-25T07:13:47.458Z,7.13
2022-09-25T07:16:17.388Z,7.53
2022-09-25T07:18:46.615Z,7.37
2022-09-25T07:21:16.639Z,7.07
2022-09-25T07:23:48.814Z,6.93
2022-09-25T07:26:21.830Z,7.60
2022-09-25T07:28:54.845Z,6.87
2022-09-25T07:31:25.807Z,6.47
2022-09-25T07:33:54.745Z,6.63
2022-09-25T07:36:23.113Z,6.77
2022-09-25T07:38:53.415Z,5.93
2022-09-25T07:41:46.778Z,5.60
2022-09-25T07:44:28.614Z,6.03
2022-09-25T07:46:58.363Z,5.90
2022-09-25T07:49:26.583Z,6.30
2022-09-25T07:51:54.836Z,5.93
2022-09-25T07:54:24.916Z,5.60
2022-09-25T07:56:53.156Z,5.57
2022-09-25T07:59:21.429Z,5.50
2022-09-25T08:01:53.643Z,6.00
2022-09-25T08:04:22.637Z,5.50
2022-09-25T08:06:50.839Z,6.43
2022-09-25T08:09:19.063Z,5.70
2022-09-25T08:11:48.627Z,5.33
2022-09-25T08:14:19.611Z,5.80
2022-09-25T08:16:49.588Z,6.03
2022-09-25T08:19:18.493Z,5.50
2022-09-25T08:21:46.870Z,5.73
2022-09-25T08:24:15.081Z,5.40
2022-09-25T08:26:43.679Z,6.50
2022-09-25T08:29:13.387Z,4.80
2022-09-25T08:31:41.575Z,5.17
2022-09-25T08:34:36.244Z,5.20
2022-09-25T08:36:59.115Z,5.40
2022-09-25T08:39:27.333Z,4.90
2022-09-25T08:42:24.397Z,5.17
2022-09-25T08:45:21.110Z,5.00
2022-09-25T08:48:09.940Z,4.87
2022-09-25T08:50:38.712Z,5.07
2022-09-25T08:53:09.905Z,4.77
2022-09-25T08:55:59.179Z,4.87
2022-09-25T08:58:30.292Z,4.87
2022-09-25T09:01:04.839Z,4.60
2022-09-25T09:03:34.551Z,5.60
2022-09-25T09:06:06.044Z,5.10
2022-09-25T09:08:37.775Z,5.27
2022-09-25T09:11:29.533Z,4.77
2022-09-25T09:14:04.091Z,4.50
2022-09-25T09:16:40.187Z,4.50
2022-09-25T09:19:10.939Z,4.80
2022-09-25T09:21:42.692Z,4.97
2022-09-25T09:24:17.227Z,4.63
2022-09-25T09:27:05.286Z,5.20
2022-09-25T09:29:57.132Z,5.10
2022-09-25T09:33:21.832Z,5.03
2022-09-25T09:36:02.529Z,4.50
2022-09-25T09:38:42.444Z,4.70
2022-09-25T09:41:53.668Z,4.40
2022-09-25T09:44:40.963Z,4.53
2022-09-25T09:47:22.604Z,4.90
2022-09-25T09:49:57.308Z,4.70
2022-09-25T09:52:31.917Z,4.53
2022-09-25T09:55:03.269Z,4.53
2022-09-25T09:57:58.568Z,4.80
2022-09-25T10:00:26.815Z,4.67
2022-09-25T10:03:00.610Z,4.20
2022-09-25T10:05:35.030Z,4.23
2022-09-25T10:08:03.361Z,4.30
2022-09-25T10:10:37.388Z,4.60
2022-09-25T10:13:13.395Z,3.30
2022-09-25T10:15:46.117Z,2.60
2022-09-25T10:18:16.454Z,2.33
2022-09-25T10:20:49.271Z,2.60
2022-09-25T10:23:29.774Z,2.90
2022-09-25T10:25:58.048Z,2.40
2022-09-25T10:28:32.758Z,2.57
2022-09-25T10:31:02.654Z,2.70
2022-09-25T10:33:33.006Z,2.60
2022-09-25T10:36:04.069Z,2.67
2022-09-25T10:38:37.659Z,2.70
2022-09-25T10:41:09.753Z,2.90
2022-09-25T10:43:52.348Z,2.50
2022-09-25T10:46:55.337Z,2.77
2022-09-25T10:49:42.796Z,2.17
2022-09-25T10:52:14.660Z,2.60
2022-09-25T10:54:45.990Z,3.00
2022-09-25T10:57:26.986Z,2.90
2022-09-25T10:59:55.443Z,2.70
2022-09-25T11:02:36.854Z,2.70
2022-09-25T11:05:06.595Z,2.50
2022-09-25T11:07:36.664Z,2.77
2022-09-25T11:10:31.948Z,2.87
2022-09-25T11:13:02.326Z,2.90
2022-09-25T11:15:30.656Z,2.57
2022-09-25T11:18:00.058Z,2.53
2022-09-25T11:20:30.839Z,2.27
2022-09-25T11:23:17.360Z,2.50
2022-09-25T11:25:50.604Z,2.37
2022-09-25T11:28:28.762Z,2.20
2022-09-25T11:31:04.209Z,2.23
2022-09-25T11:33:43.024Z,2.20
2022-09-25T11:36:18.542Z,3.23
2022-09-25T11:39:06.992Z,2.33
2022-09-25T11:41:41.217Z,2.40
2022-09-25T11:44:27.608Z,2.53
2022-09-25T11:47:03.040Z,2.47
2022-09-25T11:49:34.651Z,2.57
2022-09-25T11:52:20.479Z,2.57
2022-09-25T11:55:04.536Z,2.37
2022-09-25T11:57:41.246Z,3.63
2022-09-25T12:00:15.310Z,2.27
2022-09-25T12:03:03.659Z,2.20
2022-09-25T12:05:58.261Z,2.33
2022-09-25T12:08:50.565Z,2.57
2022-09-25T12:11:28.794Z,2.33
2022-09-25T12:14:04.209Z,2.30
2022-09-25T12:16:42.112Z,2.30
2022-09-25T12:19:33.399Z,2.50
2022-09-25T12:22:18.198Z,2.40
2022-09-25T12:25:03.800Z,2.47
2022-09-25T12:27:42.451Z,2.40
2022-09-25T12:30:19.130Z,2.47
2022-09-25T12:33:15.565Z,2.23
2022-09-25T12:35:53.249Z,2.03
2022-09-25T12:38:31.959Z,2.40
2022-09-25T12:41:06.644Z,2.10
2022-09-25T12:43:44.548Z,1.97
2022-09-25T12:46:26.350Z,1.93
2022-09-25T12:49:01.742Z,2.17
2022-09-25T12:51:38.705Z,2.03
2022-09-25T12:54:15.302Z,2.00
2022-09-25T12:56:52.192Z,2.10
2022-09-25T12:59:25.245Z,1.87
2022-09-25T13:02:02.319Z,1.80
2022-09-25T13:04:44.508Z,2.00
2022-09-25T13:07:21.037Z,2.00
2022-09-25T13:09:50.518Z,2.00
2022-09-25T13:12:44.697Z,1.73
2022-09-25T13:15:40.603Z,1.80
2022-09-25T13:18:21.866Z,2.00
2022-09-25T13:20:55.171Z,1.77
2022-09-25T13:23:31.593Z,1.87
2022-09-25T13:26:02.883Z,1.70
2022-09-25T13:28:35.342Z,2.10
2022-09-25T13:31:19.591Z,1.97
2022-09-25T13:33:51.533Z,1.70
2022-09-25T13:36:33.913Z,1.73
2022-09-25T13:39:46.320Z,1.90
2022-09-25T13:42:22.810Z,1.90
2022-09-25T13:44:58.545Z,2.17
2022-09-25T13:48:07.225Z,2.50
2022-09-25T13:50:41.728Z,2.70
2022-09-25T13:53:27.734Z,1.90
2022-09-25T13:56:44.744Z,1.77
2022-09-25T13:59:38.069Z,1.70
2022-09-25T14:02:42.321Z,1.90
2022-09-25T14:05:17.728Z,1.90
2022-09-25T14:07:48.460Z,2.20
2022-09-25T14:10:18.656Z,2.40
2022-09-25T14:12:49.393Z,1.70
2022-09-25T14:15:26.873Z,1.83
2022-09-25T14:17:57.945Z,2.00
2022-09-25T14:20:33.487Z,2.00
2022-09-25T14:23:05.347Z,2.00
2022-09-25T14:25:36.410Z,2.03
2022-09-25T14:28:15.659Z,1.83
2022-09-25T14:30:54.907Z,1.70
2022-09-25T14:33:38.966Z,1.63
2022-09-25T14:36:15.389Z,1.90
2022-09-25T14:39:12.304Z,1.70
2022-09-25T14:41:55.165Z,1.87
2022-09-25T14:45:05.055Z,1.90
2022-09-25T14:47:36.595Z,2.13
2022-09-25T14:50:06.784Z,1.87
2022-09-25T14:52:37.861Z,1.87
2022-09-25T14:55:08.053Z,1.90
2022-09-25T14:57:38.179Z,2.00
2022-09-25T15:00:08.812Z,2.17
2022-09-25T15:02:40.013Z,2.10
2022-09-25T15:05:19.136Z,2.20
2022-09-25T15:07:48.980Z,1.90
2022-09-25T15:10:28.579Z,2.33
2022-09-25T15:13:07.371Z,1.87
2022-09-25T15:15:36.091Z,2.30
2022-09-25T15:18:04.884Z,1.77
2022-09-25T15:20:34.766Z,1.70
2022-09-25T15:23:06.902Z,2.00
2022-09-25T15:25:39.333Z,1.90
2022-09-25T15:28:08.388Z,1.90
2022-09-25T15:30:39.925Z,1.90
2022-09-25T15:33:21.046Z,1.90
2022-09-25T15:35:55.872Z,1.97
2022-09-25T15:38:32.535Z,1.80
2022-09-25T15:41:03.249Z,1.63
2022-09-25T15:43:31.744Z,1.90
2022-09-25T15:46:21.702Z,2.40
2022-09-25T15:48:54.336Z,2.07
2022-09-25T15:51:25.154Z,1.90
2022-09-25T15:53:57.799Z,2.40
2022-09-25T15:56:28.868Z,2.17
2022-09-25T15:59:00.479Z,2.20
2022-09-25T16:01:48.932Z,2.47
2022-09-25T16:04:45.713Z,2.90
2022-09-25T16:07:29.324Z,2.90
2022-09-25T16:10:00.685Z,2.90
2022-09-25T16:12:31.561Z,3.70
2022-09-25T16:15:00.858Z,4.00
2022-09-25T16:17:34.101Z,2.20
2022-09-25T16:20:06.962Z,3.50
2022-09-25T16:22:48.147Z,4.33
2022-09-25T16:25:21.998Z,4.97
2022-09-25T16:27:50.527Z,5.77
2022-09-25T16:30:32.965Z,3.60
2022-09-25T16:33:06.099Z,2.70
2022-09-25T16:36:05.294Z,2.67
2022-09-25T16:38:31.522Z,2.10
2022-09-25T16:41:17.996Z,2.90
2022-09-25T16:43:46.762Z,4.73
2022-09-25T16:46:17.791Z,4.13
2022-09-25T16:48:58.122Z,4.13
2022-09-25T16:51:27.890Z,5.87
2022-09-25T16:53:58.253Z,4.93
2022-09-25T16:56:30.678Z,5.90
2022-09-25T16:58:59.483Z,4.40
2022-09-25T17:01:29.253Z,4.00
2022-09-25T17:03:59.993Z,3.77
2022-09-25T17:06:30.568Z,3.63
2022-09-25T17:09:00.612Z,4.13
2022-09-25T17:11:30.232Z,4.97
2022-09-25T17:13:58.431Z,3.83
2022-09-25T17:16:26.774Z,4.10
2022-09-25T17:19:00.597Z,4.37
2022-09-25T17:21:29.694Z,4.40
2022-09-25T17:23:58.116Z,4.07
2022-09-25T17:26:26.394Z,4.07
2022-09-25T17:28:55.970Z,3.10
2022-09-25T17:31:24.358Z,2.90
2022-09-25T17:33:52.671Z,3.73
2022-09-25T17:36:20.911Z,3.33
2022-09-25T17:38:49.208Z,3.00
2022-09-25T17:41:21.970Z,3.23
2022-09-25T17:43:50.302Z,3.53
2022-09-25T17:46:21.466Z,4.03
2022-09-25T17:48:54.302Z,4.20
2022-09-25T17:51:25.321Z,3.53
2022-09-25T17:53:53.922Z,3.77
2022-09-25T17:56:22.533Z,3.23
2022-09-25T17:58:51.227Z,3.50
2022-09-25T18:01:22.955Z,3.33
2022-09-25T18:03:51.315Z,3.03
2022-09-25T18:06:20.241Z,3.10
2022-09-25T18:08:48.760Z,2.97
2022-09-25T18:11:17.841Z,3.13
2022-09-25T18:13:46.478Z,3.10
2022-09-25T18:16:18.217Z,3.10
2022-09-25T18:19:05.399Z,3.07
2022-09-25T18:21:51.143Z,3.40
2022-09-25T18:24:19.629Z,3.13
2022-09-25T18:26:48.176Z,3.60
2022-09-25T18:29:20.474Z,3.37
2022-09-25T18:31:49.440Z,3.30
2022-09-25T18:34:21.704Z,3.63
2022-09-25T18:36:50.374Z,3.37
2022-09-25T18:39:20.496Z,4.10
2022-09-25T18:41:49.330Z,3.13
2022-09-25T18:44:19.562Z,3.40
2022-09-25T18:46:47.856Z,3.73
2022-09-25T18:49:16.165Z,3.93
2022-09-25T18:51:45.990Z,4.23
2022-09-25T18:54:15.368Z,4.43
2022-09-25T18:56:43.789Z,3.77
2022-09-25T18:59:12.110Z,3.70
2022-09-25T19:01:41.204Z,3.60
2022-09-25T19:04:13.784Z,3.63
2022-09-25T19:06:42.005Z,4.13
2022-09-25T19:09:16.366Z,3.80
2022-09-25T19:11:46.048Z,4.00
2022-09-25T19:14:16.517Z,4.00
2022-09-25T19:16:46.370Z,3.83
2022-09-25T19:19:15.072Z,3.73
2022-09-25T19:21:44.747Z,3.40
2022-09-25T19:24:14.395Z,3.67
2022-09-25T19:26:44.266Z,3.80
2022-09-25T19:29:12.779Z,3.70
2022-09-25T19:31:41.215Z,3.87
2022-09-25T19:34:10.146Z,4.00
2022-09-25T19:36:38.514Z,4.60
2022-09-25T19:39:06.833Z,3.87
2022-09-25T19:41:39.095Z,4.03
2022-09-25T19:44:13.331Z,3.87
2022-09-25T19:46:42.973Z,4.00
2022-09-25T19:49:11.842Z,3.93
2022-09-25T19:51:40.653Z,3.93
2022-09-25T19:54:10.374Z,3.93
2022-09-25T19:56:42.224Z,3.70
2022-09-25T19:59:13.521Z,3.73
2022-09-25T20:01:42.907Z,3.80
2022-09-25T20:04:17.425Z,3.50
2022-09-25T20:06:46.496Z,4.00
2022-09-25T20:09:14.934Z,3.70
2022-09-25T20:11:45.108Z,3.40
2022-09-25T20:14:13.692Z,3.33
2022-09-25T20:16:42.033Z,3.70
2022-09-25T20:19:11.678Z,3.70
2022-09-25T20:22:05.656Z,3.23
2022-09-25T20:24:33.933Z,3.50
2022-09-25T20:27:03.487Z,3.40
2022-09-25T20:29:31.883Z,3.23
2022-09-25T20:32:00.078Z,3.53
2022-09-25T20:34:28.299Z,3.50
2022-09-25T20:36:56.989Z,3.30
2022-09-25T20:39:27.406Z,3.80
2022-09-25T20:41:56.099Z,3.50
2022-09-25T20:44:25.753Z,3.83
2022-09-25T20:46:53.992Z,3.77
2022-09-25T20:49:22.961Z,3.60
2022-09-25T20:51:51.175Z,3.80
2022-09-25T20:54:19.396Z,3.73
2022-09-25T20:57:12.484Z,3.60
2022-09-25T20:59:42.108Z,3.60
2022-09-25T21:02:11.110Z,3.70
2022-09-25T21:04:39.456Z,4.00
2022-09-25T21:07:07.650Z,3.90
2022-09-25T21:09:35.869Z,3.83
2022-09-25T21:12:05.832Z,3.80
2022-09-25T21:14:35.678Z,4.20
2022-09-25T21:17:08.364Z,4.33
2022-09-25T21:19:36.636Z,4.53
2022-09-25T21:22:04.868Z,4.40
2022-09-25T21:24:33.158Z,4.63
2022-09-25T21:27:01.369Z,4.40
2022-09-25T21:29:31.979Z,4.20
2022-09-25T21:32:00.628Z,4.30
2022-09-25T21:34:30.261Z,3.63
2022-09-25T21:36:58.465Z,4.03
2022-09-25T21:39:26.660Z,4.50
2022-09-25T21:41:54.871Z,4.03
2022-09-25T21:44:24.805Z,4.07
2022-09-25T21:46:53.067Z,4.17
2022-09-25T21:49:22.986Z,4.40
2022-09-25T21:51:52.672Z,4.40
2022-09-25T21:54:20.954Z,4.33
2022-09-25T21:56:50.146Z,4.00
2022-09-25T21:59:18.711Z,4.70
2022-09-25T22:01:47.037Z,4.87
2022-09-25T22:04:15.911Z,4.63
2022-09-25T22:06:47.596Z,4.70
2022-09-25T22:09:19.271Z,4.83
2022-09-25T22:11:47.922Z,4.13
2022-09-25T22:14:16.912Z,4.37
2022-09-25T22:16:46.838Z,5.07
2022-09-25T22:19:31.385Z,5.00
2022-09-25T22:22:24.439Z,5.17
2022-09-25T22:24:54.339Z,4.73
2022-09-25T22:27:22.593Z,4.93
2022-09-25T22:29:50.804Z,5.00
2022-09-25T22:32:19.082Z,4.93
2022-09-25T22:34:47.285Z,5.10
2022-09-25T22:37:15.511Z,5.30
2022-09-25T22:39:44.208Z,5.23
2022-09-25T22:42:13.774Z,4.90
2022-09-25T22:44:41.997Z,4.80
2022-09-25T22:47:10.189Z,4.90
2022-09-25T22:49:38.409Z,4.73
2022-09-25T22:52:06.611Z,4.67
2022-09-25T22:54:34.833Z,4.80
2022-09-25T22:57:03.098Z,4.63
2022-09-25T22:59:32.688Z,4.77
2022-09-25T23:02:00.957Z,4.47
2022-09-25T23:04:29.147Z,4.33
2022-09-25T23:06:57.792Z,4.87
2022-09-25T23:09:27.093Z,4.27
2022-09-25T23:11:56.426Z,4.47
2022-09-25T23:14:26.637Z,5.63
2022-09-25T23:16:56.816Z,5.90
2022-09-25T23:19:25.704Z,5.63
2022-09-25T23:22:06.374Z,4.97
2022-09-25T23:24:34.648Z,5.57
2022-09-25T23:27:02.934Z,5.63
2022-09-25T23:29:31.160Z,5.63
2022-09-25T23:32:00.788Z,5.90
2022-09-25T23:34:29.109Z,5.57
2022-09-25T23:36:57.301Z,5.80
2022-09-25T23:39:25.483Z,5.67
2022-09-25T23:41:53.728Z,5.97
2022-09-25T23:44:22.071Z,5.70
2022-09-25T23:46:50.296Z,5.77
2022-09-25T23:49:20.069Z,6.23
2022-09-25T23:51:48.251Z,5.30
2022-09-25T23:54:18.347Z,5.50
2022-09-25T23:56:52.470Z,5.53
2022-09-25T23:59:20.731Z,5.83
